Latest Weather Observations for Clermont Airport

IDQ60801

Issued at 12:32 pm EST Wednesday 4 March 2015 (issued every 30 minutes, with the page automatically refreshed every 10 minutes)

About weather observations | Map of weather stations | Latest weather observations for QLD | Other Formats
Station Details ID: 035124 Name: CLERMONT AIRPORT Lat: -22.78 Lon: 147.62 Height: 270.27 m
Data from the previous 72 hours. | See also: Recent months at Clermont Airport
Date/Time
EST
Temp
°C
App
Temp
°C
Dew
Point
Rel
Hum
%
Delta-T
°C
Wind Press
QNH
hPa
Press
MSL
hPa
Rain
since 9 am
mm
Dir
 
Spd
km/h
Gust
km/h
Spd
kts
Gust
kts
04/12:30pm 32.7 31.8 13.8 31 11.6 E 11 20 6 11 1012.8 1011.2 0.0
04/12:00pm 31.3 30.2 13.1 33 11.0 ESE 11 20 6 11 1013.3 1011.7 0.0
04/11:30am 30.8 29.3 13.1 34 10.7 ENE 13 20 7 11 1013.6 1012.0 0.0
04/11:00am 29.9 28.7 12.8 35 10.2 E 11 22 6 12 1014.2 1012.5 0.0
04/10:30am 29.7 27.5 12.2 34 10.3 E 15 22 8 12 1014.7 1013.1 0.0
04/10:00am 28.7 27.3 13.4 39 9.2 SE 13 20 7 11 1014.9 1013.3 0.0
04/09:30am 27.9 26.3 14.9 45 8.0 E 17 28 9 15 1014.8 1013.2 0.0
04/09:00am 27.4 27.0 16.1 50 7.0 E 13 19 7 10 1014.6 1013.0 0.0
04/08:30am 26.0 27.6 18.2 62 5.0 ENE 7 15 4 8 1014.4 1012.7 0.0
04/08:00am 23.9 25.1 17.4 67 4.1 E 7 17 4 9 1014.3 1012.6 0.0
04/07:30am 22.9 24.5 17.8 73 3.2 ENE 6 9 3 5 1014.2 1012.5 0.0
04/07:00am 20.0 21.8 17.4 85 1.6 SSW 4 7 2 4 1014.0 1012.4 0.0
04/06:30am 18.0 20.1 16.2 89 1.1 CALM 0 0 0 0 1013.7 1012.1 0.0
04/06:00am 18.1 19.8 16.1 88 1.2 SW 2 4 1 2 1013.4 1011.8 0.0
04/05:30am 18.8 20.7 16.6 87 1.3 SW 2 4 1 2 1013.1 1011.5 0.0
04/05:00am 19.5 21.3 17.5 88 1.2 SSW 4 4 2 2 1012.8 1011.2 0.0
04/04:30am 19.3 21.4 16.2 82 1.9 CALM 0 2 0 1 1012.4 1010.8 0.0
04/04:00am 20.0 22.1 17.2 84 1.7 ESE 2 4 1 2 1012.4 1010.8 0.0
04/03:30am 20.1 21.8 17.1 83 1.8 E 4 6 2 3 1012.3 1010.7 0.0
04/03:00am 20.4 22.0 17.0 81 2.1 ESE 4 7 2 4 1012.6 1011.0 0.0
04/02:30am 21.2 23.8 17.4 79 2.4 CALM 0 0 0 0 1012.9 1011.3 0.0
04/02:00am 22.4 25.3 18.2 77 2.7 CALM 0 2 0 1 1013.1 1011.5 0.0
04/01:30am 22.3 24.0 18.1 77 2.6 N 6 9 3 5 1013.4 1011.8 0.0
04/01:00am 21.1 22.1 16.3 74 2.9 NNE 6 7 3 4 1013.8 1012.2 0.0
04/12:30am 21.6 23.1 15.7 69 3.6 NE 2 4 1 2 1014.5 1012.8 0.0
04/12:00am 22.7 24.1 15.5 64 4.4 E 2 4 1 2 1014.7 1013.1 0.0
 
Date/Time
EST
Temp
°C
App
Temp
°C
Dew
Point
Rel
Hum
%
Delta-T
°C
Wind Press
QNH
hPa
Press
MSL
hPa
Rain
since 9 am
mm
Dir
 
Spd
km/h
Gust
km/h
Spd
kts
Gust
kts
03/11:30pm 23.7 25.3 16.0 62 4.7 E 2 6 1 3 1014.6 1013.0 0.0
03/11:00pm 23.3 24.6 15.1 60 4.9 E 2 4 1 2 1014.2 1012.5 0.0
03/10:30pm 25.4 26.8 15.4 54 6.1 ESE 2 6 1 3 1013.9 1012.3 0.0
03/10:00pm 25.6 27.2 15.0 52 6.4 CALM 0 4 0 2 1013.7 1012.1 0.0
03/09:30pm 26.3 27.8 14.7 48 7.0 CALM 0 0 0 0 1013.5 1011.9 0.0
03/09:00pm 27.1 27.6 15.1 47 7.4 ENE 6 7 3 4 1013.3 1011.7 0.0
03/08:30pm 27.8 28.6 14.8 45 7.9 E 4 7 2 4 1013.0 1011.4 0.0
03/08:00pm 28.4 28.7 14.6 43 8.4 ENE 6 9 3 5 1012.4 1010.8 0.0
03/07:30pm 28.9 29.8 13.9 39 9.1 E 2 6 1 3 1011.9 1010.3 0.0
03/07:00pm 30.3 30.7 13.6 36 10.1 E 4 6 2 3 1011.6 1010.0 0.0
03/06:30pm 31.3 31.1 13.6 34 10.8 E 7 15 4 8 1011.3 1009.7 0.0
03/06:00pm 32.5 31.6 13.7 32 11.5 E 11 22 6 12 1011.1 1009.4 0.0
03/05:30pm 33.0 31.3 13.6 31 11.9 ESE 15 24 8 13 1010.8 1009.1 0.0
03/05:00pm 34.1 32.4 13.5 28 12.7 ESE 15 26 8 14 1010.7 1009.0 0.0
03/04:30pm 34.4 32.8 13.8 29 12.7 ESE 15 30 8 16 1010.6 1008.9 0.0
03/04:00pm 34.3 31.7 13.2 28 12.9 E 19 35 10 19 1010.6 1008.9 0.0
03/03:30pm 34.3 32.5 13.2 28 12.9 ESE 15 26 8 14 1010.7 1009.0 0.0
03/03:00pm 34.3 32.8 14.2 29 12.5 ESE 15 28 8 15 1010.9 1009.2 0.0
03/02:30pm 33.7 32.0 14.7 32 11.8 SE 17 30 9 16 1011.3 1009.7 0.0
03/02:00pm 33.1 31.9 15.1 33 11.3 E 15 24 8 13 1011.6 1010.0 0.0
03/01:30pm 33.2 32.8 15.2 33 11.3 ESE 11 30 6 16 1012.1 1010.5 0.0
03/01:00pm 32.7 31.9 15.2 34 11.0 E 13 24 7 13 1012.7 1011.1 0.0
03/12:30pm 32.2 31.8 16.1 38 10.2 E 13 26 7 14 1013.3 1011.7 0.0
03/12:00pm 31.2 30.7 16.0 40 9.6 ESE 13 22 7 12 1013.9 1012.3 0.0
03/11:30am 30.8 30.8 17.1 43 8.8 E 13 20 7 11 1014.5 1012.8 0.0
03/11:00am 29.8 30.1 16.9 45 8.2 SSE 11 22 6 12 1014.9 1013.3 0.0
03/10:30am 29.4 28.8 16.6 46 8.1 ESE 15 24 8 13 1015.5 1013.9 0.0
03/10:00am 29.2 29.3 17.4 49 7.5 E 13 22 7 12 1015.5 1013.9 0.0
03/09:30am 28.2 28.3 17.4 52 6.9 E 13 20 7 11 1015.4 1013.8 0.0
03/09:00am 28.2 29.2 18.6 56 6.2 E 11 24 6 13 1015.4 1013.8 0.0
03/08:30am 26.2 27.0 19.1 65 4.6 E 13 26 7 14 1015.5 1013.9 0.0
03/08:00am 25.4 26.6 19.1 68 4.1 ESE 11 17 6 9 1015.2 1013.6 0.0
03/07:30am 24.9 27.1 19.7 73 3.4 ESE 7 11 4 6 1015.1 1013.5 0.0
03/07:00am 23.4 26.0 19.3 78 2.6 ESE 4 7 2 4 1014.8 1013.2 0.0
03/06:30am 22.3 25.3 19.3 83 1.9 ESE 2 6 1 3 1014.5 1012.8 0.0
03/06:00am 22.6 25.3 19.4 82 2.1 ESE 4 6 2 3 1014.5 1012.8 0.0
03/05:30am 23.0 25.8 19.6 81 2.2 SSE 4 6 2 3 1014.0 1012.4 0.0
03/05:00am 23.1 26.1 19.3 79 2.4 SSE 2 4 1 2 1013.6 1012.0 0.0
03/04:30am 23.4 25.7 19.5 79 2.5 SE 6 6 3 3 1013.3 1011.7 0.0
03/04:00am 23.3 26.4 19.5 79 2.5 SE 2 4 1 2 1013.1 1011.5 0.0
03/03:30am 23.4 26.4 19.3 78 2.6 E 2 4 1 2 1012.8 1011.2 0.0
03/03:00am 23.5 26.5 19.2 77 2.8 E 2 4 1 2 1012.8 1011.2 0.0
03/02:30am 24.1 26.4 19.4 75 3.0 ENE 6 9 3 5 1012.7 1011.1 0.0
03/02:00am 24.4 27.1 19.5 74 3.2 ENE 4 6 2 3 1012.7 1011.1 0.0
03/01:30am 24.9 27.1 19.5 72 3.5 NE 7 11 4 6 1012.7 1011.1 0.0
03/01:00am 24.9 27.8 19.1 70 3.7 ENE 2 4 1 2 1012.6 1011.0 0.0
03/12:30am 25.4 27.5 19.3 69 4.0 NE 7 11 4 6 1012.6 1011.0 0.0
03/12:00am 25.8 28.0 19.2 67 4.3 NE 6 9 3 5 1012.6 1011.0 0.0
 
Date/Time
EST
Temp
°C
App
Temp
°C
Dew
Point
Rel
Hum
%
Delta-T
°C
Wind Press
QNH
hPa
Press
MSL
hPa
Rain
since 9 am
mm
Dir
 
Spd
km/h
Gust
km/h
Spd
kts
Gust
kts
02/11:30pm 26.4 27.6 19.0 63 4.8 NE 11 20 6 11 1012.5 1010.9 0.0
02/11:00pm 26.8 28.7 19.7 65 4.7 NE 9 17 5 9 1012.3 1010.7 0.0
02/10:30pm 27.5 29.4 19.8 63 5.1 NE 9 15 5 8 1012.0 1010.4 0.0
02/10:00pm 28.2 29.7 18.9 57 6.1 ENE 9 17 5 9 1011.6 1010.0 0.0
02/09:30pm 28.6 30.6 18.7 55 6.4 ENE 6 9 3 5 1011.5 1009.9 0.0
02/09:00pm 29.1 31.1 18.8 53 6.7 NE 6 9 3 5 1011.1 1009.4 0.0
02/08:30pm 29.3 31.4 19.3 55 6.6 ENE 7 11 4 6 1010.5 1008.8 0.0
02/08:00pm 29.6 31.8 19.3 54 6.8 E 6 9 3 5 1010.0 1008.4 0.0
02/07:30pm 30.3 32.5 19.3 51 7.2 E 6 7 3 4 1009.7 1008.1 0.0
02/07:00pm 31.3 33.5 19.3 49 7.9 E 6 13 3 7 1009.2 1007.6 0.0
02/06:30pm 31.7 33.7 20.0 50 7.8 E 9 19 5 10 1008.8 1007.2 0.0
02/06:00pm 32.0 32.3 19.6 47 8.3 ENE 17 33 9 18 1008.4 1006.8 0.0
02/05:30pm 35.1 35.4 17.8 36 11.3 ESE 13 22 7 12 1007.7 1006.0 0.0
02/05:00pm 35.2 35.9 17.9 36 11.4 ESE 11 17 6 9 1007.5 1005.8 0.0
02/04:30pm 34.5 35.1 18.5 38 10.5 ENE 13 20 7 11 1007.5 1005.8 0.0
02/04:00pm 34.6 35.4 19.0 39 10.4 E 13 20 7 11 1007.5 1005.8 0.0
02/03:30pm 34.4 34.9 19.2 40 10.1 E 15 28 8 15 1007.4 1005.7 0.0
02/03:00pm 35.4 37.3 20.5 41 10.1 SE 11 20 6 11 1007.6 1005.9 0.0
02/02:30pm 34.5 36.2 20.1 43 9.7 E 11 24 6 13 1008.0 1006.4 0.0
02/02:00pm 34.6 36.9 20.6 44 9.5 ENE 9 17 5 9 1008.4 1006.8 0.0
02/01:30pm 34.1 36.5 20.1 43 9.4 ESE 7 19 4 10 1008.9 1007.3 0.0
02/01:00pm 33.8 35.9 20.9 46 8.8 E 11 19 6 10 1009.4 1007.8 0.0
02/12:30pm 32.8 35.8 21.3 50 7.8 NE 7 13 4 7 1010.0 1008.4 0.0
02/12:00pm 32.9 35.1 21.1 50 8.0 E 11 17 6 9 1010.8 1009.1 0.0
02/11:30am 32.1 35.0 21.0 52 7.5 E 7 15 4 8 1011.3 1009.7 0.0
02/11:00am 31.3 34.6 21.5 56 6.7 SSE 6 9 3 5 1011.8 1010.2 0.0
02/10:30am 30.3 32.2 20.5 55 6.6 NNE 11 19 6 10 1012.1 1010.5 0.0
02/10:00am 30.0 32.8 20.8 57 6.2 NE 7 15 4 8 1012.2 1010.6 0.0
02/09:30am 28.9 30.7 20.4 60 5.7 N 11 19 6 10 1012.1 1010.5 0.0
02/09:00am 29.1 30.7 20.8 61 5.6 N 13 24 7 13 1011.9 1010.3 0.0
02/08:30am 27.7 29.9 20.5 65 4.8 N 9 19 5 10 1012.0 1010.4 0.0
02/08:00am 27.2 30.0 20.8 68 4.3 NNW 7 13 4 7 1012.2 1010.6 0.0
02/07:30am 25.9 29.2 20.7 73 3.4 NNE 4 7 2 4 1011.8 1010.2 0.0
02/07:00am 24.7 28.5 21.0 80 2.5 NNE 2 6 1 3 1011.4 1009.8 0.0
02/06:30am 24.3 27.7 21.0 82 2.2 N 4 6 2 3 1011.2 1009.5 0.0
02/06:00am 23.9 27.5 20.6 82 2.2 N 2 6 1 3 1010.7 1009.0 0.0
02/05:30am 24.1 27.4 20.8 82 2.2 N 4 6 2 3 1010.0 1008.4 0.0
02/05:00am 24.2 28.4 20.9 82 2.2 CALM 0 0 0 0 1009.5 1007.9 0.0
02/04:30am 24.3 28.0 20.8 81 2.3 NE 2 4 1 2 1009.2 1007.6 0.0
02/04:00am 25.1 28.0 21.0 78 2.7 N 7 11 4 6 1008.8 1007.2 0.0
02/03:30am 25.0 28.4 20.9 78 2.7 NNE 4 6 2 3 1008.5 1006.9 0.0
02/03:00am 25.3 27.8 21.0 77 2.9 N 9 13 5 7 1008.3 1006.7 0.0
02/02:30am 25.5 28.1 21.2 77 2.9 N 9 13 5 7 1008.3 1006.7 0.0
02/02:00am 25.9 28.1 21.1 75 3.2 N 11 17 6 9 1008.5 1006.9 0.0
02/01:30am 26.2 28.0 21.2 74 3.3 N 13 19 7 10 1008.6 1007.0 0.0
02/01:00am 26.4 29.4 21.2 73 3.5 NNE 7 11 4 6 1009.0 1007.4 0.0
02/12:30am 26.5 29.2 21.3 73 3.5 NNE 9 17 5 9 1009.1 1007.5 0.0
02/12:00am 27.0 29.7 21.3 71 3.8 NNE 9 13 5 7 1009.3 1007.7 0.0
 
Date/Time
EST
Temp
°C
App
Temp
°C
Dew
Point
Rel
Hum
%
Delta-T
°C
Wind Press
QNH
hPa
Press
MSL
hPa
Rain
since 9 am
mm
Dir
 
Spd
km/h
Gust
km/h
Spd
kts
Gust
kts
01/11:30pm 27.4 29.2 21.2 69 4.2 NNE 13 20 7 11 1009.4 1007.8 0.0
01/11:00pm 27.7 30.0 19.8 62 5.2 NNE 7 13 4 7 1009.5 1007.9 0.0
01/10:30pm 26.7 29.5 18.8 62 5.1 NNE 2 6 1 3 1009.6 1008.0 0.0
01/10:00pm 28.0 31.3 19.0 58 5.9 CALM 0 0 0 0 1009.2 1007.6 0.0
01/09:30pm 28.3 31.3 18.4 55 6.4 CALM 0 0 0 0 1008.8 1007.2 0.0
01/09:00pm 29.3 32.0 18.7 52 6.9 NE 2 7 1 4 1008.5 1006.9 0.0
01/08:30pm 29.7 31.6 18.5 51 7.3 N 6 7 3 4 1008.2 1006.6 0.0
01/08:00pm 30.7 32.5 18.8 49 7.8 NNE 7 15 4 8 1007.5 1005.8 0.0
01/07:30pm 31.0 33.0 18.7 48 8.0 NE 6 9 3 5 1007.2 1005.5 0.0
01/07:00pm 30.7 33.7 18.4 47 8.0 CALM 0 2 0 1 1006.9 1005.2 0.0
01/06:30pm 32.3 34.4 18.1 42 9.2 NNE 4 6 2 3 1007.1 1005.4 0.0
01/06:00pm 34.4 35.7 17.6 37 11.0 NE 7 11 4 6 1006.5 1004.8 0.0
01/05:30pm 34.8 36.1 17.5 35 11.3 NE 7 13 4 7 1006.0 1004.4 0.0
01/05:00pm 35.0 36.4 17.7 36 11.3 NNE 7 13 4 7 1005.9 1004.3 0.0
01/04:30pm 35.2 36.4 18.3 36 11.1 NNE 9 17 5 9 1006.0 1004.4 0.0
01/04:00pm 35.6 36.0 18.2 35 11.5 NNE 13 20 7 11 1006.2 1004.6 0.0
01/03:30pm 35.5 37.2 18.6 37 11.2 N 7 17 4 9 1006.6 1004.9 0.0
01/03:00pm 35.5 37.2 18.6 37 11.2 E 7 17 4 9 1006.9 1005.2 0.0
01/02:30pm 35.2 36.8 18.3 36 11.1 N 7 20 4 11 1007.1 1005.4 0.0
01/02:00pm 35.0 36.7 18.6 38 10.9 NNE 7 13 4 7 1007.4 1005.7 0.0
01/01:30pm 34.4 35.9 18.8 39 10.3 NE 9 17 5 9 1007.8 1006.1 0.0
01/01:00pm 34.3 35.0 18.8 40 10.3 NNE 13 24 7 13 1008.4 1006.8 0.0

Other Formats:

Comma delimited format used in spreadsheet applications
http://www.bom.gov.au/fwo/IDQ60801/IDQ60801.94395.axf

JavaScript Object Notation format (JSON) in row-major order
http://www.bom.gov.au/fwo/IDQ60801/IDQ60801.94395.json